Sierra-at-tahoe, California
Current Conditions -  °F | °C
As of 6:53 AM on Wednesday 26 Nov 2014 (Local Time) from KTVL Reporting Station
Clear Clear  
Wind Chill: 27°   Ceiling: Unl
Heat Index: 27°   Visibility: 10mi
Dew Point: 22°   Wind: 3mph
Humidity: 81%   Direction: 190°S
Pressure: 30.5"   Gusts: NA
Location:  38.77°N, 120.16°W
Report Text: KTVL 261453Z AUTO 19003KT 10SM CLR M03/M06 A3050 RMK AO2 SLP335 T10281056 53003
Loading
Personal Weather Stations






























Interactive Weather Map New forecast layout! Learn more

10-Day Weather Forecast

Advertisements
Track Severe Weather on mobile